sensor_id;sensor_type;location;lat;lon;timestamp;temperature;humidity
42365;DHT22;28498;54.400;18.566;2023-08-21T00:00:47;19.60;99.90
42365;DHT22;28498;54.400;18.566;2023-08-21T00:03:15;19.60;99.90
42365;DHT22;28498;54.400;18.566;2023-08-21T00:05:42;19.60;99.90
42365;DHT22;28498;54.400;18.566;2023-08-21T00:08:09;19.60;99.90
42365;DHT22;28498;54.400;18.566;2023-08-21T00:10:39;19.60;99.90
42365;DHT22;28498;54.400;18.566;2023-08-21T00:13:07;19.60;99.90
42365;DHT22;28498;54.400;18.566;2023-08-21T00:15:34;19.60;99.90
42365;DHT22;28498;54.400;18.566;2023-08-21T00:18:02;19.60;99.90
42365;DHT22;28498;54.400;18.566;2023-08-21T00:20:29;19.60;99.90
42365;DHT22;28498;54.400;18.566;2023-08-21T00:22:56;19.60;99.90
42365;DHT22;28498;54.400;18.566;2023-08-21T00:25:23;19.50;99.90
42365;DHT22;28498;54.400;18.566;2023-08-21T00:27:51;19.50;99.90
42365;DHT22;28498;54.400;18.566;2023-08-21T00:30:18;19.40;99.90
42365;DHT22;28498;54.400;18.566;2023-08-21T00:32:45;19.30;99.90
42365;DHT22;28498;54.400;18.566;2023-08-21T00:35:12;19.10;99.90
42365;DHT22;28498;54.400;18.566;2023-08-21T00:37:39;19.10;99.90
42365;DHT22;28498;54.400;18.566;2023-08-21T00:40:07;18.90;99.90
42365;DHT22;28498;54.400;18.566;2023-08-21T00:42:34;18.90;99.90
42365;DHT22;28498;54.400;18.566;2023-08-21T00:45:02;18.70;99.90
42365;DHT22;28498;54.400;18.566;2023-08-21T00:47:29;18.70;99.90
42365;DHT22;28498;54.400;18.566;2023-08-21T00:49:57;18.50;99.90
42365;DHT22;28498;54.400;18.566;2023-08-21T00:52:24;18.40;99.90
42365;DHT22;28498;54.400;18.566;2023-08-21T00:54:51;18.20;99.90
42365;DHT22;28498;54.400;18.566;2023-08-21T00:57:19;18.10;99.90
42365;DHT22;28498;54.400;18.566;2023-08-21T00:59:47;18.00;99.90
42365;DHT22;28498;54.400;18.566;2023-08-21T01:02:14;17.90;99.90
42365;DHT22;28498;54.400;18.566;2023-08-21T01:04:42;17.90;99.90
42365;DHT22;28498;54.400;18.566;2023-08-21T01:07:09;17.80;99.90
42365;DHT22;28498;54.400;18.566;2023-08-21T01:09:50;17.60;99.90
42365;DHT22;28498;54.400;18.566;2023-08-21T01:15:09;17.50;99.90
42365;DHT22;28498;54.400;18.566;2023-08-21T01:17:37;17.40;99.90
42365;DHT22;28498;54.400;18.566;2023-08-21T01:20:07;17.30;99.90
42365;DHT22;28498;54.400;18.566;2023-08-21T01:22:37;17.20;99.90
42365;DHT22;28498;54.400;18.566;2023-08-21T01:25:05;17.20;99.90
42365;DHT22;28498;54.400;18.566;2023-08-21T01:27:34;17.20;99.90
42365;DHT22;28498;54.400;18.566;2023-08-21T01:30:03;17.10;99.90
42365;DHT22;28498;54.400;18.566;2023-08-21T01:35:10;16.90;99.90
42365;DHT22;28498;54.400;18.566;2023-08-21T01:37:38;16.90;99.90
42365;DHT22;28498;54.400;18.566;2023-08-21T01:40:06;17.00;99.90
42365;DHT22;28498;54.400;18.566;2023-08-21T01:42:34;16.90;99.90
42365;DHT22;28498;54.400;18.566;2023-08-21T01:45:01;16.90;99.90
42365;DHT22;28498;54.400;18.566;2023-08-21T01:47:28;17.00;99.90
42365;DHT22;28498;54.400;18.566;2023-08-21T01:49:55;17.00;99.90
42365;DHT22;28498;54.400;18.566;2023-08-21T01:52:22;17.00;99.90
42365;DHT22;28498;54.400;18.566;2023-08-21T01:54:50;16.90;99.90
42365;DHT22;28498;54.400;18.566;2023-08-21T01:57:17;16.90;99.90
42365;DHT22;28498;54.400;18.566;2023-08-21T01:59:44;16.90;99.90
42365;DHT22;28498;54.400;18.566;2023-08-21T02:02:11;16.80;99.90
42365;DHT22;28498;54.400;18.566;2023-08-21T02:04:38;16.80;99.90
42365;DHT22;28498;54.400;18.566;2023-08-21T02:07:05;16.70;99.90
42365;DHT22;28498;54.400;18.566;2023-08-21T02:09:34;16.70;99.90
42365;DHT22;28498;54.400;18.566;2023-08-21T02:12:01;16.60;99.90
42365;DHT22;28498;54.400;18.566;2023-08-21T02:14:28;16.60;99.90
42365;DHT22;28498;54.400;18.566;2023-08-21T02:16:55;16.60;99.90
42365;DHT22;28498;54.400;18.566;2023-08-21T02:19:22;16.60;99.90
42365;DHT22;28498;54.400;18.566;2023-08-21T02:21:49;16.60;99.90
42365;DHT22;28498;54.400;18.566;2023-08-21T02:24:17;16.50;99.90
42365;DHT22;28498;54.400;18.566;2023-08-21T02:26:44;16.60;99.90
42365;DHT22;28498;54.400;18.566;2023-08-21T02:29:12;16.50;99.90
42365;DHT22;28498;54.400;18.566;2023-08-21T02:31:39;16.50;99.90
42365;DHT22;28498;54.400;18.566;2023-08-21T02:34:06;16.40;99.90
42365;DHT22;28498;54.400;18.566;2023-08-21T02:36:33;16.40;99.90
42365;DHT22;28498;54.400;18.566;2023-08-21T02:39:00;16.40;99.90
42365;DHT22;28498;54.400;18.566;2023-08-21T02:41:27;16.40;99.90
42365;DHT22;28498;54.400;18.566;2023-08-21T02:43:55;16.40;99.90
42365;DHT22;28498;54.400;18.566;2023-08-21T02:46:21;16.30;99.90
42365;DHT22;28498;54.400;18.566;2023-08-21T02:48:49;16.20;99.90
42365;DHT22;28498;54.400;18.566;2023-08-21T02:51:16;16.20;99.90
42365;DHT22;28498;54.400;18.566;2023-08-21T02:53:43;16.30;99.90
42365;DHT22;28498;54.400;18.566;2023-08-21T02:56:10;16.20;99.90
42365;DHT22;28498;54.400;18.566;2023-08-21T02:58:37;16.20;99.90
42365;DHT22;28498;54.400;18.566;2023-08-21T03:01:04;16.10;99.90
42365;DHT22;28498;54.400;18.566;2023-08-21T03:03:31;16.10;99.90
42365;DHT22;28498;54.400;18.566;2023-08-21T03:06:00;16.10;99.90
42365;DHT22;28498;54.400;18.566;2023-08-21T03:08:27;16.20;99.90
42365;DHT22;28498;54.400;18.566;2023-08-21T03:10:54;16.30;99.90
42365;DHT22;28498;54.400;18.566;2023-08-21T03:13:21;16.20;99.90
42365;DHT22;28498;54.400;18.566;2023-08-21T03:15:48;16.30;99.90
42365;DHT22;28498;54.400;18.566;2023-08-21T03:18:16;16.20;99.90
42365;DHT22;28498;54.400;18.566;2023-08-21T03:20:46;16.20;99.90
42365;DHT22;28498;54.400;18.566;2023-08-21T03:23:13;16.20;99.90
42365;DHT22;28498;54.400;18.566;2023-08-21T03:25:41;16.30;99.90
42365;DHT22;28498;54.400;18.566;2023-08-21T03:28:08;16.30;99.90
42365;DHT22;28498;54.400;18.566;2023-08-21T03:30:35;16.50;99.90
42365;DHT22;28498;54.400;18.566;2023-08-21T03:33:02;16.50;99.90
42365;DHT22;28498;54.400;18.566;2023-08-21T03:35:30;16.50;99.90
42365;DHT22;28498;54.400;18.566;2023-08-21T03:37:57;16.50;99.90
42365;DHT22;28498;54.400;18.566;2023-08-21T03:40:24;16.40;99.90
42365;DHT22;28498;54.400;18.566;2023-08-21T03:42:51;16.40;99.90
42365;DHT22;28498;54.400;18.566;2023-08-21T03:45:17;16.40;99.90
42365;DHT22;28498;54.400;18.566;2023-08-21T03:47:44;16.40;99.90
42365;DHT22;28498;54.400;18.566;2023-08-21T03:50:11;16.50;99.90
42365;DHT22;28498;54.400;18.566;2023-08-21T03:52:38;16.40;99.90
42365;DHT22;28498;54.400;18.566;2023-08-21T03:55:06;16.40;99.90
42365;DHT22;28498;54.400;18.566;2023-08-21T03:57:33;16.50;99.90
42365;DHT22;28498;54.400;18.566;2023-08-21T04:00:00;16.40;99.90
42365;DHT22;28498;54.400;18.566;2023-08-21T04:02:27;16.40;99.90
42365;DHT22;28498;54.400;18.566;2023-08-21T04:04:54;16.40;99.90
42365;DHT22;28498;54.400;18.566;2023-08-21T04:07:22;16.40;99.90
42365;DHT22;28498;54.400;18.566;2023-08-21T04:09:48;16.40;99.90
42365;DHT22;28498;54.400;18.566;2023-08-21T04:12:16;16.40;99.90
42365;DHT22;28498;54.400;18.566;2023-08-21T04:14:43;16.40;99.90
42365;DHT22;28498;54.400;18.566;2023-08-21T04:17:10;16.40;99.90
42365;DHT22;28498;54.400;18.566;2023-08-21T04:19:37;16.40;99.90
42365;DHT22;28498;54.400;18.566;2023-08-21T04:22:03;16.50;99.90
42365;DHT22;28498;54.400;18.566;2023-08-21T04:24:30;16.50;99.90
42365;DHT22;28498;54.400;18.566;2023-08-21T04:26:57;16.60;99.90
42365;DHT22;28498;54.400;18.566;2023-08-21T04:29:25;16.70;99.90
42365;DHT22;28498;54.400;18.566;2023-08-21T04:31:52;16.70;99.90
42365;DHT22;28498;54.400;18.566;2023-08-21T04:34:19;16.70;99.90
42365;DHT22;28498;54.400;18.566;2023-08-21T04:36:46;16.80;99.90
42365;DHT22;28498;54.400;18.566;2023-08-21T04:39:13;16.90;99.90
42365;DHT22;28498;54.400;18.566;2023-08-21T04:41:41;17.00;99.90
42365;DHT22;28498;54.400;18.566;2023-08-21T04:44:08;17.10;99.90
42365;DHT22;28498;54.400;18.566;2023-08-21T04:46:35;17.20;99.90
42365;DHT22;28498;54.400;18.566;2023-08-21T04:49:02;17.20;99.90
42365;DHT22;28498;54.400;18.566;2023-08-21T04:51:29;17.50;99.90
42365;DHT22;28498;54.400;18.566;2023-08-21T04:53:56;17.80;99.90
42365;DHT22;28498;54.400;18.566;2023-08-21T04:56:23;18.10;99.90
42365;DHT22;28498;54.400;18.566;2023-08-21T04:58:50;18.20;99.90
42365;DHT22;28498;54.400;18.566;2023-08-21T05:01:17;18.20;99.90
42365;DHT22;28498;54.400;18.566;2023-08-21T05:03:44;18.20;99.90
42365;DHT22;28498;54.400;18.566;2023-08-21T05:06:11;18.10;99.90
42365;DHT22;28498;54.400;18.566;2023-08-21T05:08:38;18.00;99.90
42365;DHT22;28498;54.400;18.566;2023-08-21T05:11:05;17.90;99.90
42365;DHT22;28498;54.400;18.566;2023-08-21T05:13:32;17.80;99.90
42365;DHT22;28498;54.400;18.566;2023-08-21T05:15:59;17.80;99.90
42365;DHT22;28498;54.400;18.566;2023-08-21T05:18:26;17.90;99.90
42365;DHT22;28498;54.400;18.566;2023-08-21T05:20:55;17.90;99.90
42365;DHT22;28498;54.400;18.566;2023-08-21T05:23:23;17.90;99.90
42365;DHT22;28498;54.400;18.566;2023-08-21T05:25:50;18.00;99.90
42365;DHT22;28498;54.400;18.566;2023-08-21T05:28:17;18.10;99.90
42365;DHT22;28498;54.400;18.566;2023-08-21T05:30:47;18.20;99.90
42365;DHT22;28498;54.400;18.566;2023-08-21T05:33:15;18.10;99.90
42365;DHT22;28498;54.400;18.566;2023-08-21T05:35:42;18.20;99.90
42365;DHT22;28498;54.400;18.566;2023-08-21T05:38:09;18.40;99.90
42365;DHT22;28498;54.400;18.566;2023-08-21T05:40:36;18.30;99.90
42365;DHT22;28498;54.400;18.566;2023-08-21T05:43:04;18.30;99.90
42365;DHT22;28498;54.400;18.566;2023-08-21T05:45:31;18.50;99.90
42365;DHT22;28498;54.400;18.566;2023-08-21T05:47:58;18.60;99.90
42365;DHT22;28498;54.400;18.566;2023-08-21T05:50:26;18.70;99.90
42365;DHT22;28498;54.400;18.566;2023-08-21T05:52:53;18.90;99.90
42365;DHT22;28498;54.400;18.566;2023-08-21T05:55:21;19.00;99.90
42365;DHT22;28498;54.400;18.566;2023-08-21T05:57:48;18.90;99.90
42365;DHT22;28498;54.400;18.566;2023-08-21T06:00:15;18.90;99.90
42365;DHT22;28498;54.400;18.566;2023-08-21T06:02:42;18.90;99.90
42365;DHT22;28498;54.400;18.566;2023-08-21T06:05:10;19.00;99.90
42365;DHT22;28498;54.400;18.566;2023-08-21T06:07:37;19.10;99.90
42365;DHT22;28498;54.400;18.566;2023-08-21T06:10:04;19.10;99.90
42365;DHT22;28498;54.400;18.566;2023-08-21T06:12:31;19.30;99.90
42365;DHT22;28498;54.400;18.566;2023-08-21T06:14:58;19.30;99.90
42365;DHT22;28498;54.400;18.566;2023-08-21T06:17:27;19.50;99.90
42365;DHT22;28498;54.400;18.566;2023-08-21T06:19:54;19.70;99.90
42365;DHT22;28498;54.400;18.566;2023-08-21T06:22:22;20.10;99.90
42365;DHT22;28498;54.400;18.566;2023-08-21T06:24:49;20.00;99.90
42365;DHT22;28498;54.400;18.566;2023-08-21T06:27:16;20.00;99.90
42365;DHT22;28498;54.400;18.566;2023-08-21T06:29:43;19.90;99.90
42365;DHT22;28498;54.400;18.566;2023-08-21T06:32:10;19.60;99.90
42365;DHT22;28498;54.400;18.566;2023-08-21T06:34:37;19.50;99.90
42365;DHT22;28498;54.400;18.566;2023-08-21T06:37:05;19.80;99.90
42365;DHT22;28498;54.400;18.566;2023-08-21T06:39:32;19.80;99.90
42365;DHT22;28498;54.400;18.566;2023-08-21T06:41:59;19.80;99.90
42365;DHT22;28498;54.400;18.566;2023-08-21T06:44:27;19.70;99.90
42365;DHT22;28498;54.400;18.566;2023-08-21T06:46:54;19.70;99.90
42365;DHT22;28498;54.400;18.566;2023-08-21T06:49:21;19.60;99.90
42365;DHT22;28498;54.400;18.566;2023-08-21T06:51:48;19.60;99.90
42365;DHT22;28498;54.400;18.566;2023-08-21T06:54:15;19.80;99.90
42365;DHT22;28498;54.400;18.566;2023-08-21T06:56:42;19.90;99.90
42365;DHT22;28498;54.400;18.566;2023-08-21T06:59:09;19.90;99.90
42365;DHT22;28498;54.400;18.566;2023-08-21T07:01:36;19.80;99.90
42365;DHT22;28498;54.400;18.566;2023-08-21T07:04:04;19.90;99.90
42365;DHT22;28498;54.400;18.566;2023-08-21T07:06:31;20.20;99.90
42365;DHT22;28498;54.400;18.566;2023-08-21T07:08:58;20.40;99.90
42365;DHT22;28498;54.400;18.566;2023-08-21T07:11:25;20.60;99.90
42365;DHT22;28498;54.400;18.566;2023-08-21T07:13:52;20.40;99.90
42365;DHT22;28498;54.400;18.566;2023-08-21T07:16:19;20.30;99.90
42365;DHT22;28498;54.400;18.566;2023-08-21T07:18:46;20.20;99.90
42365;DHT22;28498;54.400;18.566;2023-08-21T07:21:13;20.50;99.90
42365;DHT22;28498;54.400;18.566;2023-08-21T07:23:58;20.40;99.90
42365;DHT22;28498;54.400;18.566;2023-08-21T07:26:26;20.60;99.90
42365;DHT22;28498;54.400;18.566;2023-08-21T07:28:53;20.60;99.90
42365;DHT22;28498;54.400;18.566;2023-08-21T07:31:20;20.80;99.90
42365;DHT22;28498;54.400;18.566;2023-08-21T07:33:47;21.00;99.90
42365;DHT22;28498;54.400;18.566;2023-08-21T07:36:14;21.00;99.90
42365;DHT22;28498;54.400;18.566;2023-08-21T07:38:44;20.90;99.90
42365;DHT22;28498;54.400;18.566;2023-08-21T07:41:12;20.90;99.90
42365;DHT22;28498;54.400;18.566;2023-08-21T07:43:41;20.90;99.90
42365;DHT22;28498;54.400;18.566;2023-08-21T07:46:10;20.80;99.90
42365;DHT22;28498;54.400;18.566;2023-08-21T07:48:43;20.80;99.90
42365;DHT22;28498;54.400;18.566;2023-08-21T07:51:11;21.00;99.90
42365;DHT22;28498;54.400;18.566;2023-08-21T07:53:38;21.10;99.90
42365;DHT22;28498;54.400;18.566;2023-08-21T07:56:05;21.20;99.90
42365;DHT22;28498;54.400;18.566;2023-08-21T07:58:32;21.20;99.90
42365;DHT22;28498;54.400;18.566;2023-08-21T08:01:00;21.10;99.90
42365;DHT22;28498;54.400;18.566;2023-08-21T08:03:28;21.30;99.90
42365;DHT22;28498;54.400;18.566;2023-08-21T08:05:55;21.40;99.90
42365;DHT22;28498;54.400;18.566;2023-08-21T08:08:22;21.30;99.90
42365;DHT22;28498;54.400;18.566;2023-08-21T08:10:49;21.10;99.90
42365;DHT22;28498;54.400;18.566;2023-08-21T08:13:16;21.20;99.90
42365;DHT22;28498;54.400;18.566;2023-08-21T08:15:44;21.20;99.90
42365;DHT22;28498;54.400;18.566;2023-08-21T08:18:12;21.40;99.90
42365;DHT22;28498;54.400;18.566;2023-08-21T08:20:39;21.40;99.90
42365;DHT22;28498;54.400;18.566;2023-08-21T08:23:07;21.40;99.90
42365;DHT22;28498;54.400;18.566;2023-08-21T08:25:34;21.60;99.90
42365;DHT22;28498;54.400;18.566;2023-08-21T08:28:01;21.70;99.90
42365;DHT22;28498;54.400;18.566;2023-08-21T08:30:28;21.80;99.90
42365;DHT22;28498;54.400;18.566;2023-08-21T08:32:55;22.10;99.90
42365;DHT22;28498;54.400;18.566;2023-08-21T08:35:23;22.00;99.90
42365;DHT22;28498;54.400;18.566;2023-08-21T08:37:50;21.90;99.90
42365;DHT22;28498;54.400;18.566;2023-08-21T08:40:17;22.20;99.90
42365;DHT22;28498;54.400;18.566;2023-08-21T08:42:44;21.90;99.90
42365;DHT22;28498;54.400;18.566;2023-08-21T08:45:13;21.80;99.90
42365;DHT22;28498;54.400;18.566;2023-08-21T08:47:41;22.00;99.90
42365;DHT22;28498;54.400;18.566;2023-08-21T08:50:09;22.30;99.90
42365;DHT22;28498;54.400;18.566;2023-08-21T08:52:38;22.40;99.90
42365;DHT22;28498;54.400;18.566;2023-08-21T08:55:07;22.10;99.90
42365;DHT22;28498;54.400;18.566;2023-08-21T08:57:34;22.10;99.90
42365;DHT22;28498;54.400;18.566;2023-08-21T09:00:03;22.10;99.90
42365;DHT22;28498;54.400;18.566;2023-08-21T09:02:31;22.20;99.90
42365;DHT22;28498;54.400;18.566;2023-08-21T09:04:58;22.30;99.90
42365;DHT22;28498;54.400;18.566;2023-08-21T09:07:25;22.50;99.90
42365;DHT22;28498;54.400;18.566;2023-08-21T09:09:52;22.60;99.90
42365;DHT22;28498;54.400;18.566;2023-08-21T09:12:20;22.60;99.90
42365;DHT22;28498;54.400;18.566;2023-08-21T09:14:47;22.50;99.90
42365;DHT22;28498;54.400;18.566;2023-08-21T09:17:15;22.50;99.90
42365;DHT22;28498;54.400;18.566;2023-08-21T09:19:43;22.70;99.90
42365;DHT22;28498;54.400;18.566;2023-08-21T09:22:17;22.80;99.90
42365;DHT22;28498;54.400;18.566;2023-08-21T09:25:01;23.00;99.90
42365;DHT22;28498;54.400;18.566;2023-08-21T09:27:32;23.10;99.90
42365;DHT22;28498;54.400;18.566;2023-08-21T09:30:13;23.40;99.90
42365;DHT22;28498;54.400;18.566;2023-08-21T09:33:00;23.60;99.90
42365;DHT22;28498;54.400;18.566;2023-08-21T09:35:27;23.40;99.90
42365;DHT22;28498;54.400;18.566;2023-08-21T09:37:54;23.00;99.90
42365;DHT22;28498;54.400;18.566;2023-08-21T09:40:22;23.10;99.90
42365;DHT22;28498;54.400;18.566;2023-08-21T09:42:58;23.30;99.90
42365;DHT22;28498;54.400;18.566;2023-08-21T09:45:27;23.60;99.90
42365;DHT22;28498;54.400;18.566;2023-08-21T09:47:56;23.60;99.90
42365;DHT22;28498;54.400;18.566;2023-08-21T09:50:26;23.80;99.90
42365;DHT22;28498;54.400;18.566;2023-08-21T09:52:56;23.80;99.90
42365;DHT22;28498;54.400;18.566;2023-08-21T09:55:25;23.70;99.90
42365;DHT22;28498;54.400;18.566;2023-08-21T09:58:02;23.70;99.90
42365;DHT22;28498;54.400;18.566;2023-08-21T10:00:33;23.80;99.90
42365;DHT22;28498;54.400;18.566;2023-08-21T10:03:07;23.90;99.90
42365;DHT22;28498;54.400;18.566;2023-08-21T10:05:36;23.80;99.90
42365;DHT22;28498;54.400;18.566;2023-08-21T10:08:05;24.00;99.90
42365;DHT22;28498;54.400;18.566;2023-08-21T10:10:34;24.00;99.90
42365;DHT22;28498;54.400;18.566;2023-08-21T10:13:02;24.30;99.90
42365;DHT22;28498;54.400;18.566;2023-08-21T10:15:31;24.60;99.90
42365;DHT22;28498;54.400;18.566;2023-08-21T10:18:30;24.90;97.90
42365;DHT22;28498;54.400;18.566;2023-08-21T10:21:17;24.90;93.80
42365;DHT22;28498;54.400;18.566;2023-08-21T10:23:50;24.70;92.80
42365;DHT22;28498;54.400;18.566;2023-08-21T10:26:21;25.10;96.40
42365;DHT22;28498;54.400;18.566;2023-08-21T10:28:54;25.50;92.70
42365;DHT22;28498;54.400;18.566;2023-08-21T10:31:35;25.80;90.20
42365;DHT22;28498;54.400;18.566;2023-08-21T10:34:13;25.90;84.20
42365;DHT22;28498;54.400;18.566;2023-08-21T10:42:04;24.30;89.80
42365;DHT22;28498;54.400;18.566;2023-08-21T10:47:15;24.50;86.50
42365;DHT22;28498;54.400;18.566;2023-08-21T10:49:48;25.00;87.90
42365;DHT22;28498;54.400;18.566;2023-08-21T10:52:24;24.70;85.00
42365;DHT22;28498;54.400;18.566;2023-08-21T10:54:54;24.30;86.30
42365;DHT22;28498;54.400;18.566;2023-08-21T10:57:23;24.60;85.30
42365;DHT22;28498;54.400;18.566;2023-08-21T11:02:18;25.20;84.20
42365;DHT22;28498;54.400;18.566;2023-08-21T11:04:45;25.30;82.40
42365;DHT22;28498;54.400;18.566;2023-08-21T11:07:13;25.30;82.10
42365;DHT22;28498;54.400;18.566;2023-08-21T11:09:40;25.40;82.50
42365;DHT22;28498;54.400;18.566;2023-08-21T11:12:13;25.70;81.70
42365;DHT22;28498;54.400;18.566;2023-08-21T11:14:41;25.50;80.80
42365;DHT22;28498;54.400;18.566;2023-08-21T11:17:09;25.60;82.20
42365;DHT22;28498;54.400;18.566;2023-08-21T11:19:37;25.50;81.70
42365;DHT22;28498;54.400;18.566;2023-08-21T11:22:05;25.30;81.70
42365;DHT22;28498;54.400;18.566;2023-08-21T11:27:05;25.40;83.00
42365;DHT22;28498;54.400;18.566;2023-08-21T11:29:46;25.80;83.30
42365;DHT22;28498;54.400;18.566;2023-08-21T11:32:16;25.90;82.30
42365;DHT22;28498;54.400;18.566;2023-08-21T11:34:54;25.90;81.10
42365;DHT22;28498;54.400;18.566;2023-08-21T11:37:26;26.00;81.00
42365;DHT22;28498;54.400;18.566;2023-08-21T11:39:58;25.90;79.00
42365;DHT22;28498;54.400;18.566;2023-08-21T11:42:32;25.30;77.20
42365;DHT22;28498;54.400;18.566;2023-08-21T11:45:01;25.30;79.20
42365;DHT22;28498;54.400;18.566;2023-08-21T11:47:33;25.10;79.60
42365;DHT22;28498;54.400;18.566;2023-08-21T11:50:05;24.90;79.30
42365;DHT22;28498;54.400;18.566;2023-08-21T11:52:33;24.80;82.50
42365;DHT22;28498;54.400;18.566;2023-08-21T11:55:02;24.80;82.90
42365;DHT22;28498;54.400;18.566;2023-08-21T11:57:33;24.70;82.30
42365;DHT22;28498;54.400;18.566;2023-08-21T12:00:00;24.80;83.00
42365;DHT22;28498;54.400;18.566;2023-08-21T12:02:28;25.20;82.70
42365;DHT22;28498;54.400;18.566;2023-08-21T12:05:03;25.50;80.60
42365;DHT22;28498;54.400;18.566;2023-08-21T12:07:30;25.40;80.00
42365;DHT22;28498;54.400;18.566;2023-08-21T12:09:57;25.40;81.80
42365;DHT22;28498;54.400;18.566;2023-08-21T12:12:24;25.10;82.80
42365;DHT22;28498;54.400;18.566;2023-08-21T12:14:52;24.90;83.50
42365;DHT22;28498;54.400;18.566;2023-08-21T12:17:19;24.70;84.20
42365;DHT22;28498;54.400;18.566;2023-08-21T12:19:46;24.80;85.30
42365;DHT22;28498;54.400;18.566;2023-08-21T12:22:13;24.70;84.40
42365;DHT22;28498;54.400;18.566;2023-08-21T12:24:40;24.60;86.50
42365;DHT22;28498;54.400;18.566;2023-08-21T12:27:07;24.50;88.40
42365;DHT22;28498;54.400;18.566;2023-08-21T12:29:35;24.60;91.80
42365;DHT22;28498;54.400;18.566;2023-08-21T12:32:02;24.70;90.20
42365;DHT22;28498;54.400;18.566;2023-08-21T12:34:31;25.00;88.40
42365;DHT22;28498;54.400;18.566;2023-08-21T12:36:58;25.40;83.50
42365;DHT22;28498;54.400;18.566;2023-08-21T12:39:25;25.60;85.30
42365;DHT22;28498;54.400;18.566;2023-08-21T12:41:53;25.20;81.80
42365;DHT22;28498;54.400;18.566;2023-08-21T12:44:20;25.00;81.20
42365;DHT22;28498;54.400;18.566;2023-08-21T12:46:47;25.00;81.70
42365;DHT22;28498;54.400;18.566;2023-08-21T12:49:14;25.10;82.90
42365;DHT22;28498;54.400;18.566;2023-08-21T12:51:41;25.00;79.20
42365;DHT22;28498;54.400;18.566;2023-08-21T12:54:08;25.10;79.10
42365;DHT22;28498;54.400;18.566;2023-08-21T12:56:36;25.20;78.90
42365;DHT22;28498;54.400;18.566;2023-08-21T12:59:03;24.80;79.90
42365;DHT22;28498;54.400;18.566;2023-08-21T13:01:30;24.70;80.40
42365;DHT22;28498;54.400;18.566;2023-08-21T13:04:02;24.70;80.40
42365;DHT22;28498;54.400;18.566;2023-08-21T13:06:30;24.70;77.60
42365;DHT22;28498;54.400;18.566;2023-08-21T13:08:57;24.90;78.30
42365;DHT22;28498;54.400;18.566;2023-08-21T13:11:24;24.80;77.00
42365;DHT22;28498;54.400;18.566;2023-08-21T13:13:51;25.00;77.20
42365;DHT22;28498;54.400;18.566;2023-08-21T13:16:19;25.20;76.00
42365;DHT22;28498;54.400;18.566;2023-08-21T13:18:46;25.00;75.90
42365;DHT22;28498;54.400;18.566;2023-08-21T13:21:13;25.20;76.60
42365;DHT22;28498;54.400;18.566;2023-08-21T13:23:40;24.90;74.60
42365;DHT22;28498;54.400;18.566;2023-08-21T13:26:07;24.90;75.40
42365;DHT22;28498;54.400;18.566;2023-08-21T13:28:34;24.90;75.60
42365;DHT22;28498;54.400;18.566;2023-08-21T13:31:01;24.80;75.90
42365;DHT22;28498;54.400;18.566;2023-08-21T13:33:29;24.80;76.10
42365;DHT22;28498;54.400;18.566;2023-08-21T13:35:57;25.00;76.30
42365;DHT22;28498;54.400;18.566;2023-08-21T13:38:24;25.00;76.10
42365;DHT22;28498;54.400;18.566;2023-08-21T13:40:51;25.20;75.40
42365;DHT22;28498;54.400;18.566;2023-08-21T13:43:18;25.30;75.60
42365;DHT22;28498;54.400;18.566;2023-08-21T13:45:47;25.10;74.40
42365;DHT22;28498;54.400;18.566;2023-08-21T13:48:15;25.10;73.40
42365;DHT22;28498;54.400;18.566;2023-08-21T13:50:43;25.10;73.50
42365;DHT22;28498;54.400;18.566;2023-08-21T13:53:10;25.10;73.80
42365;DHT22;28498;54.400;18.566;2023-08-21T13:55:37;25.20;74.00
42365;DHT22;28498;54.400;18.566;2023-08-21T13:58:05;25.00;74.20
42365;DHT22;28498;54.400;18.566;2023-08-21T14:00:32;24.80;74.60
42365;DHT22;28498;54.400;18.566;2023-08-21T14:02:59;24.90;76.10
42365;DHT22;28498;54.400;18.566;2023-08-21T14:05:26;25.30;75.60
42365;DHT22;28498;54.400;18.566;2023-08-21T14:07:54;25.50;75.40
42365;DHT22;28498;54.400;18.566;2023-08-21T14:10:21;25.80;73.80
42365;DHT22;28498;54.400;18.566;2023-08-21T14:12:48;26.10;74.30
42365;DHT22;28498;54.400;18.566;2023-08-21T14:15:15;26.40;72.90
42365;DHT22;28498;54.400;18.566;2023-08-21T14:17:45;26.60;72.10
42365;DHT22;28498;54.400;18.566;2023-08-21T14:20:12;27.00;72.30
42365;DHT22;28498;54.400;18.566;2023-08-21T14:22:39;26.80;70.90
42365;DHT22;28498;54.400;18.566;2023-08-21T14:25:07;26.60;72.80
42365;DHT22;28498;54.400;18.566;2023-08-21T14:27:34;26.30;71.90
42365;DHT22;28498;54.400;18.566;2023-08-21T14:30:03;26.30;72.30
42365;DHT22;28498;54.400;18.566;2023-08-21T14:32:31;26.20;71.60
42365;DHT22;28498;54.400;18.566;2023-08-21T14:35:00;26.10;72.20
42365;DHT22;28498;54.400;18.566;2023-08-21T14:37:27;25.60;72.50
42365;DHT22;28498;54.400;18.566;2023-08-21T14:39:54;25.80;74.60
42365;DHT22;28498;54.400;18.566;2023-08-21T14:42:21;25.40;73.80
42365;DHT22;28498;54.400;18.566;2023-08-21T14:44:48;25.40;74.60
42365;DHT22;28498;54.400;18.566;2023-08-21T14:47:15;25.90;75.80
42365;DHT22;28498;54.400;18.566;2023-08-21T14:49:42;26.30;73.60
42365;DHT22;28498;54.400;18.566;2023-08-21T14:52:09;26.80;73.00
42365;DHT22;28498;54.400;18.566;2023-08-21T14:54:36;27.00;70.00
42365;DHT22;28498;54.400;18.566;2023-08-21T14:57:04;27.00;70.00
42365;DHT22;28498;54.400;18.566;2023-08-21T14:59:30;26.80;70.80
42365;DHT22;28498;54.400;18.566;2023-08-21T15:01:58;26.50;71.90
42365;DHT22;28498;54.400;18.566;2023-08-21T15:04:25;26.80;70.90
42365;DHT22;28498;54.400;18.566;2023-08-21T15:06:52;26.40;70.60
42365;DHT22;28498;54.400;18.566;2023-08-21T15:09:19;25.50;71.70
42365;DHT22;28498;54.400;18.566;2023-08-21T15:11:47;25.60;73.30
42365;DHT22;28498;54.400;18.566;2023-08-21T15:14:14;25.60;71.90
42365;DHT22;28498;54.400;18.566;2023-08-21T15:16:41;25.50;74.00
42365;DHT22;28498;54.400;18.566;2023-08-21T15:19:09;25.50;73.50
42365;DHT22;28498;54.400;18.566;2023-08-21T15:21:36;25.70;72.30
42365;DHT22;28498;54.400;18.566;2023-08-21T15:24:04;25.70;72.70
42365;DHT22;28498;54.400;18.566;2023-08-21T15:26:34;25.70;73.00
42365;DHT22;28498;54.400;18.566;2023-08-21T15:29:01;25.20;74.20
42365;DHT22;28498;54.400;18.566;2023-08-21T15:31:28;24.80;76.60
42365;DHT22;28498;54.400;18.566;2023-08-21T15:33:55;24.40;77.10
42365;DHT22;28498;54.400;18.566;2023-08-21T15:36:22;24.30;78.50
42365;DHT22;28498;54.400;18.566;2023-08-21T15:38:49;24.40;77.60